sensor_id;sensor_type;location;lat;lon;timestamp;temperature;humidity
70089;HTU21D;57460;47.134;19.888;2024-02-21T00:02:20;9.93;69.34
70089;HTU21D;57460;47.134;19.888;2024-02-21T00:04:46;9.97;69.13
70089;HTU21D;57460;47.134;19.888;2024-02-21T00:07:12;9.91;69.28
70089;HTU21D;57460;47.134;19.888;2024-02-21T00:09:38;9.88;69.54
70089;HTU21D;57460;47.134;19.888;2024-02-21T00:12:04;9.77;69.90
70089;HTU21D;57460;47.134;19.888;2024-02-21T00:14:31;9.78;69.70
70089;HTU21D;57460;47.134;19.888;2024-02-21T00:16:56;9.78;69.72
70089;HTU21D;57460;47.134;19.888;2024-02-21T00:19:22;9.78;69.76
70089;HTU21D;57460;47.134;19.888;2024-02-21T00:21:48;9.70;70.08
70089;HTU21D;57460;47.134;19.888;2024-02-21T00:24:14;9.74;69.54
70089;HTU21D;57460;47.134;19.888;2024-02-21T00:26:39;9.70;69.61
70089;HTU21D;57460;47.134;19.888;2024-02-21T00:29:05;9.59;70.24
70089;HTU21D;57460;47.134;19.888;2024-02-21T00:31:31;9.62;70.09
70089;HTU21D;57460;47.134;19.888;2024-02-21T00:33:57;9.56;70.14
70089;HTU21D;57460;47.134;19.888;2024-02-21T00:36:23;9.52;70.26
70089;HTU21D;57460;47.134;19.888;2024-02-21T00:38:49;9.54;70.25
70089;HTU21D;57460;47.134;19.888;2024-02-21T00:41:14;9.64;69.73
70089;HTU21D;57460;47.134;19.888;2024-02-21T00:43:41;9.55;70.06
70089;HTU21D;57460;47.134;19.888;2024-02-21T00:46:07;9.63;69.71
70089;HTU21D;57460;47.134;19.888;2024-02-21T00:48:33;9.48;70.26
70089;HTU21D;57460;47.134;19.888;2024-02-21T00:50:59;9.48;70.19
70089;HTU21D;57460;47.134;19.888;2024-02-21T00:53:25;9.71;69.41
70089;HTU21D;57460;47.134;19.888;2024-02-21T00:55:51;9.55;69.90
70089;HTU21D;57460;47.134;19.888;2024-02-21T00:58:16;9.54;69.89
70089;HTU21D;57460;47.134;19.888;2024-02-21T01:00:42;9.40;70.74
70089;HTU21D;57460;47.134;19.888;2024-02-21T01:03:08;9.55;69.83
70089;HTU21D;57460;47.134;19.888;2024-02-21T01:05:33;9.68;69.55
70089;HTU21D;57460;47.134;19.888;2024-02-21T01:07:59;9.62;69.58
70089;HTU21D;57460;47.134;19.888;2024-02-21T01:10:25;9.63;69.64
70089;HTU21D;57460;47.134;19.888;2024-02-21T01:12:51;9.72;69.13
70089;HTU21D;57460;47.134;19.888;2024-02-21T01:15:17;9.76;69.00
70089;HTU21D;57460;47.134;19.888;2024-02-21T01:17:42;9.66;69.08
70089;HTU21D;57460;47.134;19.888;2024-02-21T01:20:08;9.51;69.80
70089;HTU21D;57460;47.134;19.888;2024-02-21T01:22:34;9.55;69.52
70089;HTU21D;57460;47.134;19.888;2024-02-21T01:25:00;9.52;69.74
70089;HTU21D;57460;47.134;19.888;2024-02-21T01:27:26;9.53;69.59
70089;HTU21D;57460;47.134;19.888;2024-02-21T01:29:52;9.53;69.48
70089;HTU21D;57460;47.134;19.888;2024-02-21T01:32:18;9.66;69.00
70089;HTU21D;57460;47.134;19.888;2024-02-21T01:34:44;9.60;69.04
70089;HTU21D;57460;47.134;19.888;2024-02-21T01:37:09;9.54;69.31
70089;HTU21D;57460;47.134;19.888;2024-02-21T01:39:35;9.47;69.29
70089;HTU21D;57460;47.134;19.888;2024-02-21T01:42:01;9.40;69.42
70089;HTU21D;57460;47.134;19.888;2024-02-21T01:44:27;9.41;69.21
70089;HTU21D;57460;47.134;19.888;2024-02-21T01:46:53;9.45;69.22
70089;HTU21D;57460;47.134;19.888;2024-02-21T01:49:20;9.42;69.00
70089;HTU21D;57460;47.134;19.888;2024-02-21T01:51:47;9.40;69.20
70089;HTU21D;57460;47.134;19.888;2024-02-21T01:54:14;9.32;69.52
70089;HTU21D;57460;47.134;19.888;2024-02-21T01:56:42;9.39;69.14
70089;HTU21D;57460;47.134;19.888;2024-02-21T01:59:08;9.26;69.65
70089;HTU21D;57460;47.134;19.888;2024-02-21T02:01:34;9.31;69.42
70089;HTU21D;57460;47.134;19.888;2024-02-21T02:04:00;9.10;70.10
70089;HTU21D;57460;47.134;19.888;2024-02-21T02:06:26;9.23;69.74
70089;HTU21D;57460;47.134;19.888;2024-02-21T02:08:53;9.34;69.28
70089;HTU21D;57460;47.134;19.888;2024-02-21T02:11:20;9.22;69.78
70089;HTU21D;57460;47.134;19.888;2024-02-21T02:13:45;9.31;69.39
70089;HTU21D;57460;47.134;19.888;2024-02-21T02:16:11;9.17;69.89
70089;HTU21D;57460;47.134;19.888;2024-02-21T02:18:37;9.26;69.50
70089;HTU21D;57460;47.134;19.888;2024-02-21T02:21:10;9.21;69.68
70089;HTU21D;57460;47.134;19.888;2024-02-21T02:23:37;9.19;69.57
70089;HTU21D;57460;47.134;19.888;2024-02-21T02:26:03;9.30;69.28
70089;HTU21D;57460;47.134;19.888;2024-02-21T02:28:29;9.16;69.91
70089;HTU21D;57460;47.134;19.888;2024-02-21T02:30:54;9.20;69.39
70089;HTU21D;57460;47.134;19.888;2024-02-21T02:33:20;9.26;69.44
70089;HTU21D;57460;47.134;19.888;2024-02-21T02:35:46;9.35;69.20
70089;HTU21D;57460;47.134;19.888;2024-02-21T02:38:12;9.26;69.59
70089;HTU21D;57460;47.134;19.888;2024-02-21T02:40:39;9.23;69.77
70089;HTU21D;57460;47.134;19.888;2024-02-21T02:43:06;9.16;70.00
70089;HTU21D;57460;47.134;19.888;2024-02-21T02:45:32;9.19;69.68
70089;HTU21D;57460;47.134;19.888;2024-02-21T02:47:58;9.23;69.66
70089;HTU21D;57460;47.134;19.888;2024-02-21T02:50:25;9.27;69.57
70089;HTU21D;57460;47.134;19.888;2024-02-21T02:52:52;9.10;70.07
70089;HTU21D;57460;47.134;19.888;2024-02-21T02:55:18;9.10;70.10
70089;HTU21D;57460;47.134;19.888;2024-02-21T02:57:44;9.25;69.39
70089;HTU21D;57460;47.134;19.888;2024-02-21T03:00:14;9.06;70.19
70089;HTU21D;57460;47.134;19.888;2024-02-21T03:02:42;9.21;69.71
70089;HTU21D;57460;47.134;19.888;2024-02-21T03:05:13;9.03;70.43
70089;HTU21D;57460;47.134;19.888;2024-02-21T03:07:43;8.98;70.42
70089;HTU21D;57460;47.134;19.888;2024-02-21T03:10:10;9.03;69.86
70089;HTU21D;57460;47.134;19.888;2024-02-21T03:12:37;9.08;70.16
70089;HTU21D;57460;47.134;19.888;2024-02-21T03:15:04;9.12;69.56
70089;HTU21D;57460;47.134;19.888;2024-02-21T03:17:31;9.05;69.82
70089;HTU21D;57460;47.134;19.888;2024-02-21T03:19:58;9.14;69.56
70089;HTU21D;57460;47.134;19.888;2024-02-21T03:22:25;9.12;69.56
70089;HTU21D;57460;47.134;19.888;2024-02-21T03:24:51;9.04;69.46
70089;HTU21D;57460;47.134;19.888;2024-02-21T03:27:16;9.00;69.73
70089;HTU21D;57460;47.134;19.888;2024-02-21T03:29:42;8.89;69.77
70089;HTU21D;57460;47.134;19.888;2024-02-21T03:32:09;8.93;70.00
70089;HTU21D;57460;47.134;19.888;2024-02-21T03:34:35;9.04;69.45
70089;HTU21D;57460;47.134;19.888;2024-02-21T03:37:01;9.12;68.99
70089;HTU21D;57460;47.134;19.888;2024-02-21T03:39:27;9.03;69.29
70089;HTU21D;57460;47.134;19.888;2024-02-21T03:41:52;9.07;68.87
70089;HTU21D;57460;47.134;19.888;2024-02-21T03:44:19;9.12;68.56
70089;HTU21D;57460;47.134;19.888;2024-02-21T03:46:44;9.08;68.39
70089;HTU21D;57460;47.134;19.888;2024-02-21T03:49:10;9.05;68.52
70089;HTU21D;57460;47.134;19.888;2024-02-21T03:51:37;9.14;68.23
70089;HTU21D;57460;47.134;19.888;2024-02-21T03:54:02;9.05;68.35
70089;HTU21D;57460;47.134;19.888;2024-02-21T03:56:28;9.09;67.96
70089;HTU21D;57460;47.134;19.888;2024-02-21T03:58:54;9.08;67.94
70089;HTU21D;57460;47.134;19.888;2024-02-21T04:01:20;8.96;68.35
70089;HTU21D;57460;47.134;19.888;2024-02-21T04:03:46;8.91;68.55
70089;HTU21D;57460;47.134;19.888;2024-02-21T04:06:12;8.81;68.85
70089;HTU21D;57460;47.134;19.888;2024-02-21T04:08:39;8.76;68.95
70089;HTU21D;57460;47.134;19.888;2024-02-21T04:11:05;8.74;69.06
70089;HTU21D;57460;47.134;19.888;2024-02-21T04:13:30;8.73;69.29
70089;HTU21D;57460;47.134;19.888;2024-02-21T04:15:56;8.86;68.75
70089;HTU21D;57460;47.134;19.888;2024-02-21T04:18:22;8.79;68.96
70089;HTU21D;57460;47.134;19.888;2024-02-21T04:20:48;8.74;69.24
70089;HTU21D;57460;47.134;19.888;2024-02-21T04:23:13;8.65;69.36
70089;HTU21D;57460;47.134;19.888;2024-02-21T04:25:39;8.60;69.62
70089;HTU21D;57460;47.134;19.888;2024-02-21T04:28:05;8.56;69.85
70089;HTU21D;57460;47.134;19.888;2024-02-21T04:30:31;8.71;69.09
70089;HTU21D;57460;47.134;19.888;2024-02-21T04:32:56;8.71;69.52
70089;HTU21D;57460;47.134;19.888;2024-02-21T04:35:22;8.67;69.30
70089;HTU21D;57460;47.134;19.888;2024-02-21T04:37:49;8.71;69.42
70089;HTU21D;57460;47.134;19.888;2024-02-21T04:40:14;8.62;69.41
70089;HTU21D;57460;47.134;19.888;2024-02-21T04:42:42;8.60;69.65
70089;HTU21D;57460;47.134;19.888;2024-02-21T04:45:08;8.62;69.52
70089;HTU21D;57460;47.134;19.888;2024-02-21T04:47:34;8.60;69.64
70089;HTU21D;57460;47.134;19.888;2024-02-21T04:50:00;8.63;69.37
70089;HTU21D;57460;47.134;19.888;2024-02-21T04:52:25;8.61;69.26
70089;HTU21D;57460;47.134;19.888;2024-02-21T04:54:51;8.50;69.79
70089;HTU21D;57460;47.134;19.888;2024-02-21T04:57:17;8.55;69.57
70089;HTU21D;57460;47.134;19.888;2024-02-21T04:59:46;8.47;69.72
70089;HTU21D;57460;47.134;19.888;2024-02-21T05:02:13;8.53;69.45
70089;HTU21D;57460;47.134;19.888;2024-02-21T05:04:39;8.53;69.27
70089;HTU21D;57460;47.134;19.888;2024-02-21T05:07:07;8.31;69.95
70089;HTU21D;57460;47.134;19.888;2024-02-21T05:09:33;8.28;70.16
70089;HTU21D;57460;47.134;19.888;2024-02-21T05:11:58;8.23;70.23
70089;HTU21D;57460;47.134;19.888;2024-02-21T05:14:25;8.20;69.98
70089;HTU21D;57460;47.134;19.888;2024-02-21T05:16:52;8.16;70.00
70089;HTU21D;57460;47.134;19.888;2024-02-21T05:19:18;8.17;69.78
70089;HTU21D;57460;47.134;19.888;2024-02-21T05:21:44;7.99;70.14
70089;HTU21D;57460;47.134;19.888;2024-02-21T05:24:10;8.04;70.03
70089;HTU21D;57460;47.134;19.888;2024-02-21T05:26:36;7.88;70.55
70089;HTU21D;57460;47.134;19.888;2024-02-21T05:29:01;7.90;70.35
70089;HTU21D;57460;47.134;19.888;2024-02-21T05:34:17;7.88;70.25
70089;HTU21D;57460;47.134;19.888;2024-02-21T05:36:43;7.76;70.51
70089;HTU21D;57460;47.134;19.888;2024-02-21T05:39:09;7.76;70.42
70089;HTU21D;57460;47.134;19.888;2024-02-21T05:41:35;7.70;70.67
70089;HTU21D;57460;47.134;19.888;2024-02-21T05:44:01;7.61;70.84
70089;HTU21D;57460;47.134;19.888;2024-02-21T05:46:27;7.59;71.09
70089;HTU21D;57460;47.134;19.888;2024-02-21T05:48:53;7.62;70.77
70089;HTU21D;57460;47.134;19.888;2024-02-21T05:51:19;7.69;70.54
70089;HTU21D;57460;47.134;19.888;2024-02-21T05:53:44;7.56;70.94
70089;HTU21D;57460;47.134;19.888;2024-02-21T05:56:11;7.52;70.73
70089;HTU21D;57460;47.134;19.888;2024-02-21T05:58:37;7.52;70.58
70089;HTU21D;57460;47.134;19.888;2024-02-21T06:01:03;7.44;70.92
70089;HTU21D;57460;47.134;19.888;2024-02-21T06:03:30;7.47;71.02
70089;HTU21D;57460;47.134;19.888;2024-02-21T06:05:56;7.62;70.51
70089;HTU21D;57460;47.134;19.888;2024-02-21T06:08:22;7.70;70.29
70089;HTU21D;57460;47.134;19.888;2024-02-21T06:10:47;7.64;70.45
70089;HTU21D;57460;47.134;19.888;2024-02-21T06:13:25;7.74;70.04
70089;HTU21D;57460;47.134;19.888;2024-02-21T06:15:51;7.76;70.10
70089;HTU21D;57460;47.134;19.888;2024-02-21T06:18:17;7.71;70.13
70089;HTU21D;57460;47.134;19.888;2024-02-21T06:20:43;7.67;70.29
70089;HTU21D;57460;47.134;19.888;2024-02-21T06:23:11;7.59;70.32
70089;HTU21D;57460;47.134;19.888;2024-02-21T06:25:36;7.62;70.29
70089;HTU21D;57460;47.134;19.888;2024-02-21T06:28:02;7.60;70.30
70089;HTU21D;57460;47.134;19.888;2024-02-21T06:30:28;7.54;70.51
70089;HTU21D;57460;47.134;19.888;2024-02-21T06:32:54;7.57;70.32
70089;HTU21D;57460;47.134;19.888;2024-02-21T06:35:21;7.49;70.25
70089;HTU21D;57460;47.134;19.888;2024-02-21T06:37:50;7.53;70.20
70089;HTU21D;57460;47.134;19.888;2024-02-21T06:40:22;7.62;69.99
70089;HTU21D;57460;47.134;19.888;2024-02-21T06:42:48;7.75;69.68
70089;HTU21D;57460;47.134;19.888;2024-02-21T06:45:15;7.79;69.76
70089;HTU21D;57460;47.134;19.888;2024-02-21T06:47:40;7.97;69.26
70089;HTU21D;57460;47.134;19.888;2024-02-21T06:50:06;8.04;69.27
70089;HTU21D;57460;47.134;19.888;2024-02-21T06:52:32;8.07;69.58
70089;HTU21D;57460;47.134;19.888;2024-02-21T06:54:58;8.27;68.95
70089;HTU21D;57460;47.134;19.888;2024-02-21T06:57:24;8.44;68.65
70089;HTU21D;57460;47.134;19.888;2024-02-21T06:59:49;8.42;68.89
70089;HTU21D;57460;47.134;19.888;2024-02-21T07:02:15;8.63;68.19
70089;HTU21D;57460;47.134;19.888;2024-02-21T07:04:41;8.61;68.49
70089;HTU21D;57460;47.134;19.888;2024-02-21T07:07:06;8.73;68.26
70089;HTU21D;57460;47.134;19.888;2024-02-21T07:09:32;8.76;68.08
70089;HTU21D;57460;47.134;19.888;2024-02-21T07:11:58;8.64;68.71
70089;HTU21D;57460;47.134;19.888;2024-02-21T07:14:24;8.90;67.96
70089;HTU21D;57460;47.134;19.888;2024-02-21T07:16:50;9.01;67.84
70089;HTU21D;57460;47.134;19.888;2024-02-21T07:19:16;9.10;67.62
70089;HTU21D;57460;47.134;19.888;2024-02-21T07:21:42;9.05;68.01
70089;HTU21D;57460;47.134;19.888;2024-02-21T07:24:08;9.17;67.49
70089;HTU21D;57460;47.134;19.888;2024-02-21T07:26:34;9.31;67.42
70089;HTU21D;57460;47.134;19.888;2024-02-21T07:29:00;9.49;67.20
70089;HTU21D;57460;47.134;19.888;2024-02-21T07:31:26;9.81;65.27
70089;HTU21D;57460;47.134;19.888;2024-02-21T07:33:52;9.93;64.92
70089;HTU21D;57460;47.134;19.888;2024-02-21T07:36:28;9.95;64.91
70089;HTU21D;57460;47.134;19.888;2024-02-21T07:38:54;10.29;63.85
70089;HTU21D;57460;47.134;19.888;2024-02-21T07:41:19;10.36;62.71
70089;HTU21D;57460;47.134;19.888;2024-02-21T07:43:45;10.28;63.21
70089;HTU21D;57460;47.134;19.888;2024-02-21T07:46:11;10.33;63.08
70089;HTU21D;57460;47.134;19.888;2024-02-21T07:48:36;10.35;63.36
70089;HTU21D;57460;47.134;19.888;2024-02-21T07:51:02;10.58;62.15
70089;HTU21D;57460;47.134;19.888;2024-02-21T07:53:28;10.43;62.94
70089;HTU21D;57460;47.134;19.888;2024-02-21T07:55:54;10.41;63.56
70089;HTU21D;57460;47.134;19.888;2024-02-21T07:58:19;10.62;62.44
70089;HTU21D;57460;47.134;19.888;2024-02-21T08:00:45;10.55;63.09
70089;HTU21D;57460;47.134;19.888;2024-02-21T08:03:11;10.82;61.09
70089;HTU21D;57460;47.134;19.888;2024-02-21T08:05:36;10.77;60.63
70089;HTU21D;57460;47.134;19.888;2024-02-21T08:08:03;10.83;60.00
70089;HTU21D;57460;47.134;19.888;2024-02-21T08:10:29;10.87;59.60
70089;HTU21D;57460;47.134;19.888;2024-02-21T08:12:55;10.72;59.93
70089;HTU21D;57460;47.134;19.888;2024-02-21T08:15:21;10.67;60.39
70089;HTU21D;57460;47.134;19.888;2024-02-21T08:17:49;10.77;60.01
70089;HTU21D;57460;47.134;19.888;2024-02-21T08:20:15;10.79;60.06
70089;HTU21D;57460;47.134;19.888;2024-02-21T08:22:41;10.89;58.74
70089;HTU21D;57460;47.134;19.888;2024-02-21T08:25:08;10.88;58.06
70089;HTU21D;57460;47.134;19.888;2024-02-21T08:27:33;10.70;58.81
70089;HTU21D;57460;47.134;19.888;2024-02-21T08:29:59;10.82;58.82
70089;HTU21D;57460;47.134;19.888;2024-02-21T08:32:25;10.92;58.96
70089;HTU21D;57460;47.134;19.888;2024-02-21T08:34:51;10.80;59.84
70089;HTU21D;57460;47.134;19.888;2024-02-21T08:37:16;10.95;58.93
70089;HTU21D;57460;47.134;19.888;2024-02-21T08:39:42;11.31;57.83
70089;HTU21D;57460;47.134;19.888;2024-02-21T08:42:08;11.42;57.20
70089;HTU21D;57460;47.134;19.888;2024-02-21T08:44:33;11.36;57.25
70089;HTU21D;57460;47.134;19.888;2024-02-21T08:46:59;11.39;57.68
70089;HTU21D;57460;47.134;19.888;2024-02-21T08:49:28;11.49;56.70
70089;HTU21D;57460;47.134;19.888;2024-02-21T08:51:54;11.54;55.98
70089;HTU21D;57460;47.134;19.888;2024-02-21T08:54:20;11.49;56.39
70089;HTU21D;57460;47.134;19.888;2024-02-21T08:56:45;11.77;56.13
70089;HTU21D;57460;47.134;19.888;2024-02-21T08:59:11;12.67;53.80
70089;HTU21D;57460;47.134;19.888;2024-02-21T09:01:37;13.39;51.66
70089;HTU21D;57460;47.134;19.888;2024-02-21T09:04:02;13.62;50.59
70089;HTU21D;57460;47.134;19.888;2024-02-21T09:06:28;13.71;51.14
70089;HTU21D;57460;47.134;19.888;2024-02-21T09:08:56;14.01;49.74
70089;HTU21D;57460;47.134;19.888;2024-02-21T09:11:22;14.39;48.66
70089;HTU21D;57460;47.134;19.888;2024-02-21T09:13:48;14.36;48.14
70089;HTU21D;57460;47.134;19.888;2024-02-21T09:16:14;14.35;48.92
70089;HTU21D;57460;47.134;19.888;2024-02-21T09:18:40;14.71;47.93
70089;HTU21D;57460;47.134;19.888;2024-02-21T09:21:06;15.02;46.85
70089;HTU21D;57460;47.134;19.888;2024-02-21T09:23:31;14.43;47.98
70089;HTU21D;57460;47.134;19.888;2024-02-21T09:25:57;13.93;49.34
70089;HTU21D;57460;47.134;19.888;2024-02-21T09:28:26;13.76;49.64
70089;HTU21D;57460;47.134;19.888;2024-02-21T09:30:51;13.26;50.76
70089;HTU21D;57460;47.134;19.888;2024-02-21T09:33:17;12.89;51.59
70089;HTU21D;57460;47.134;19.888;2024-02-21T09:35:43;12.58;51.85
70089;HTU21D;57460;47.134;19.888;2024-02-21T09:38:09;12.67;52.65
70089;HTU21D;57460;47.134;19.888;2024-02-21T09:40:35;13.85;49.60
70089;HTU21D;57460;47.134;19.888;2024-02-21T09:43:04;14.34;48.44
70089;HTU21D;57460;47.134;19.888;2024-02-21T09:45:34;14.41;47.92
70089;HTU21D;57460;47.134;19.888;2024-02-21T09:48:25;15.17;47.49
70089;HTU21D;57460;47.134;19.888;2024-02-21T09:50:56;15.31;46.26
70089;HTU21D;57460;47.134;19.888;2024-02-21T09:53:24;14.84;47.38
70089;HTU21D;57460;47.134;19.888;2024-02-21T09:55:52;14.30;47.55
70089;HTU21D;57460;47.134;19.888;2024-02-21T09:58:18;13.50;49.82
70089;HTU21D;57460;47.134;19.888;2024-02-21T10:00:44;12.92;51.46
70089;HTU21D;57460;47.134;19.888;2024-02-21T10:03:10;12.67;52.12
70089;HTU21D;57460;47.134;19.888;2024-02-21T10:05:36;12.51;52.65
70089;HTU21D;57460;47.134;19.888;2024-02-21T10:08:05;12.47;52.88
70089;HTU21D;57460;47.134;19.888;2024-02-21T10:10:45;12.37;53.46
70089;HTU21D;57460;47.134;19.888;2024-02-21T10:13:25;12.23;53.97
70089;HTU21D;57460;47.134;19.888;2024-02-21T10:16:03;12.52;54.05
70089;HTU21D;57460;47.134;19.888;2024-02-21T10:18:29;12.19;54.87
70089;HTU21D;57460;47.134;19.888;2024-02-21T10:21:05;12.27;55.39
70089;HTU21D;57460;47.134;19.888;2024-02-21T10:23:49;12.45;54.66
70089;HTU21D;57460;47.134;19.888;2024-02-21T10:26:20;12.65;53.56
70089;HTU21D;57460;47.134;19.888;2024-02-21T10:28:47;12.47;54.74
70089;HTU21D;57460;47.134;19.888;2024-02-21T10:31:24;12.71;54.98
70089;HTU21D;57460;47.134;19.888;2024-02-21T10:33:57;12.91;52.30
70089;HTU21D;57460;47.134;19.888;2024-02-21T10:36:23;13.16;52.11
70089;HTU21D;57460;47.134;19.888;2024-02-21T10:38:53;13.24;51.27
70089;HTU21D;57460;47.134;19.888;2024-02-21T10:41:20;13.18;51.40
70089;HTU21D;57460;47.134;19.888;2024-02-21T10:43:56;12.88;52.17
70089;HTU21D;57460;47.134;19.888;2024-02-21T10:46:24;12.85;52.41
70089;HTU21D;57460;47.134;19.888;2024-02-21T10:49:09;12.90;51.45
70089;HTU21D;57460;47.134;19.888;2024-02-21T10:51:43;12.64;52.30
70089;HTU21D;57460;47.134;19.888;2024-02-21T10:56:38;12.66;52.36
70089;HTU21D;57460;47.134;19.888;2024-02-21T10:59:07;12.74;51.85
70089;HTU21D;57460;47.134;19.888;2024-02-21T11:01:33;12.73;52.51
70089;HTU21D;57460;47.134;19.888;2024-02-21T11:04:11;12.61;55.27
70089;HTU21D;57460;47.134;19.888;2024-02-21T11:06:39;12.96;53.11
70089;HTU21D;57460;47.134;19.888;2024-02-21T11:09:07;13.40;51.44
70089;HTU21D;57460;47.134;19.888;2024-02-21T11:11:43;13.33;52.33
70089;HTU21D;57460;47.134;19.888;2024-02-21T11:14:18;13.68;50.42
70089;HTU21D;57460;47.134;19.888;2024-02-21T11:16:44;13.62;49.25
70089;HTU21D;57460;47.134;19.888;2024-02-21T11:21:45;14.06;49.91
70089;HTU21D;57460;47.134;19.888;2024-02-21T11:24:11;14.29;49.11
70089;HTU21D;57460;47.134;19.888;2024-02-21T11:26:40;14.23;49.71
70089;HTU21D;57460;47.134;19.888;2024-02-21T11:29:09;14.08;49.64
70089;HTU21D;57460;47.134;19.888;2024-02-21T11:31:43;14.07;50.03
70089;HTU21D;57460;47.134;19.888;2024-02-21T11:34:12;14.09;50.50
70089;HTU21D;57460;47.134;19.888;2024-02-21T11:36:49;14.35;51.03
70089;HTU21D;57460;47.134;19.888;2024-02-21T11:39:23;14.69;48.74
70089;HTU21D;57460;47.134;19.888;2024-02-21T11:42:06;14.75;48.80
70089;HTU21D;57460;47.134;19.888;2024-02-21T11:44:37;14.64;49.37
70089;HTU21D;57460;47.134;19.888;2024-02-21T11:47:08;14.77;49.02
70089;HTU21D;57460;47.134;19.888;2024-02-21T11:49:42;14.81;48.63
70089;HTU21D;57460;47.134;19.888;2024-02-21T11:52:08;14.44;49.21
70089;HTU21D;57460;47.134;19.888;2024-02-21T11:54:34;14.32;47.66
70089;HTU21D;57460;47.134;19.888;2024-02-21T11:57:01;14.14;49.47
70089;HTU21D;57460;47.134;19.888;2024-02-21T11:59:29;14.40;49.71
70089;HTU21D;57460;47.134;19.888;2024-02-21T12:01:55;14.32;49.40
70089;HTU21D;57460;47.134;19.888;2024-02-21T12:04:21;14.50;49.29
70089;HTU21D;57460;47.134;19.888;2024-02-21T12:06:49;14.67;48.76
70089;HTU21D;57460;47.134;19.888;2024-02-21T12:09:19;14.79;49.19
70089;HTU21D;57460;47.134;19.888;2024-02-21T12:11:45;14.93;46.69
70089;HTU21D;57460;47.134;19.888;2024-02-21T12:14:16;14.88;47.09
70089;HTU21D;57460;47.134;19.888;2024-02-21T12:16:42;15.09;47.47
70089;HTU21D;57460;47.134;19.888;2024-02-21T12:19:13;14.73;46.70
70089;HTU21D;57460;47.134;19.888;2024-02-21T12:21:39;14.74;48.39
70089;HTU21D;57460;47.134;19.888;2024-02-21T12:24:17;14.87;47.81
70089;HTU21D;57460;47.134;19.888;2024-02-21T12:26:43;15.12;48.58
70089;HTU21D;57460;47.134;19.888;2024-02-21T12:29:09;15.25;47.17
70089;HTU21D;57460;47.134;19.888;2024-02-21T12:31:36;15.04;45.22
70089;HTU21D;57460;47.134;19.888;2024-02-21T12:34:02;15.09;46.76
70089;HTU21D;57460;47.134;19.888;2024-02-21T12:36:30;15.21;44.75
70089;HTU21D;57460;47.134;19.888;2024-02-21T12:38:56;15.43;46.37
70089;HTU21D;57460;47.134;19.888;2024-02-21T12:41:22;15.28;46.91
70089;HTU21D;57460;47.134;19.888;2024-02-21T12:43:47;15.34;47.09
70089;HTU21D;57460;47.134;19.888;2024-02-21T12:46:13;15.40;44.66
70089;HTU21D;57460;47.134;19.888;2024-02-21T12:48:39;15.31;46.46
70089;HTU21D;57460;47.134;19.888;2024-02-21T12:51:05;15.32;46.47
70089;HTU21D;57460;47.134;19.888;2024-02-21T12:53:31;15.28;44.79
70089;HTU21D;57460;47.134;19.888;2024-02-21T12:55:57;15.53;46.12
70089;HTU21D;57460;47.134;19.888;2024-02-21T12:58:23;15.60;44.51
70089;HTU21D;57460;47.134;19.888;2024-02-21T13:00:48;15.01;45.63
70089;HTU21D;57460;47.134;19.888;2024-02-21T13:03:14;15.23;45.60
70089;HTU21D;57460;47.134;19.888;2024-02-21T13:05:40;15.04;45.06
70089;HTU21D;57460;47.134;19.888;2024-02-21T13:08:06;14.97;47.26
70089;HTU21D;57460;47.134;19.888;2024-02-21T13:10:32;14.98;45.45
70089;HTU21D;57460;47.134;19.888;2024-02-21T13:13:01;15.28;45.50
70089;HTU21D;57460;47.134;19.888;2024-02-21T13:15:28;15.36;45.17
70089;HTU21D;57460;47.134;19.888;2024-02-21T13:17:57;15.19;44.93
70089;HTU21D;57460;47.134;19.888;2024-02-21T13:20:26;14.98;44.96
70089;HTU21D;57460;47.134;19.888;2024-02-21T13:22:53;15.01;46.29
70089;HTU21D;57460;47.134;19.888;2024-02-21T13:25:19;15.01;44.09
70089;HTU21D;57460;47.134;19.888;2024-02-21T13:27:47;15.04;45.96
70089;HTU21D;57460;47.134;19.888;2024-02-21T13:30:13;15.18;45.53
70089;HTU21D;57460;47.134;19.888;2024-02-21T13:32:42;15.28;46.19
70089;HTU21D;57460;47.134;19.888;2024-02-21T13:35:08;15.41;46.90
70089;HTU21D;57460;47.134;19.888;2024-02-21T13:37:34;15.25;42.41
70089;HTU21D;57460;47.134;19.888;2024-02-21T13:40:02;15.12;47.68
70089;HTU21D;57460;47.134;19.888;2024-02-21T13:42:29;15.33;45.90
70089;HTU21D;57460;47.134;19.888;2024-02-21T13:44:55;15.09;45.98
70089;HTU21D;57460;47.134;19.888;2024-02-21T13:47:21;15.09;45.87
70089;HTU21D;57460;47.134;19.888;2024-02-21T13:49:47;14.96;44.54
70089;HTU21D;57460;47.134;19.888;2024-02-21T13:52:13;15.02;46.03
70089;HTU21D;57460;47.134;19.888;2024-02-21T13:54:40;14.96;45.61
70089;HTU21D;57460;47.134;19.888;2024-02-21T13:57:05;14.72;45.57
70089;HTU21D;57460;47.134;19.888;2024-02-21T13:59:31;14.38;45.89
70089;HTU21D;57460;47.134;19.888;2024-02-21T14:01:59;14.27;46.19
70089;HTU21D;57460;47.134;19.888;2024-02-21T14:04:25;14.21;45.48
70089;HTU21D;57460;47.134;19.888;2024-02-21T14:06:50;14.12;47.79
70089;HTU21D;57460;47.134;19.888;2024-02-21T14:09:16;14.09;47.67
70089;HTU21D;57460;47.134;19.888;2024-02-21T14:11:42;14.00;46.95
70089;HTU21D;57460;47.134;19.888;2024-02-21T14:14:08;13.98;47.11
70089;HTU21D;57460;47.134;19.888;2024-02-21T14:16:33;13.93;47.69
70089;HTU21D;57460;47.134;19.888;2024-02-21T14:18:59;13.99;48.50
70089;HTU21D;57460;47.134;19.888;2024-02-21T14:21:25;14.05;47.63
70089;HTU21D;57460;47.134;19.888;2024-02-21T14:23:51;14.06;47.68
70089;HTU21D;57460;47.134;19.888;2024-02-21T14:26:18;14.17;47.99
70089;HTU21D;57460;47.134;19.888;2024-02-21T14:28:44;14.20;48.43
70089;HTU21D;57460;47.134;19.888;2024-02-21T14:31:11;14.10;48.11
70089;HTU21D;57460;47.134;19.888;2024-02-21T14:33:37;13.97;48.15
70089;HTU21D;57460;47.134;19.888;2024-02-21T14:36:03;13.90;46.57
70089;HTU21D;57460;47.134;19.888;2024-02-21T14:38:29;13.92;49.05
70089;HTU21D;57460;47.134;19.888;2024-02-21T14:40:55;13.83;47.69
70089;HTU21D;57460;47.134;19.888;2024-02-21T14:43:21;13.66;48.14
70089;HTU21D;57460;47.134;19.888;2024-02-21T14:45:50;13.68;49.55
70089;HTU21D;57460;47.134;19.888;2024-02-21T14:48:16;13.80;48.18
70089;HTU21D;57460;47.134;19.888;2024-02-21T14:50:42;13.88;47.90
70089;HTU21D;57460;47.134;19.888;2024-02-21T14:53:08;13.81;48.15
70089;HTU21D;57460;47.134;19.888;2024-02-21T14:55:34;13.75;47.48
70089;HTU21D;57460;47.134;19.888;2024-02-21T14:58:00;13.55;48.15
70089;HTU21D;57460;47.134;19.888;2024-02-21T15:00:26;13.52;49.19
70089;HTU21D;57460;47.134;19.888;2024-02-21T15:02:59;13.45;49.07
70089;HTU21D;57460;47.134;19.888;2024-02-21T15:05:25;13.39;48.50
70089;HTU21D;57460;47.134;19.888;2024-02-21T15:07:52;13.37;49.32
70089;HTU21D;57460;47.134;19.888;2024-02-21T15:10:18;13.35;49.18
70089;HTU21D;57460;47.134;19.888;2024-02-21T15:12:45;13.31;49.86
70089;HTU21D;57460;47.134;19.888;2024-02-21T15:15:11;13.32;49.68
70089;HTU21D;57460;47.134;19.888;2024-02-21T15:17:36;13.27;49.99